Time;durP1;ratioP1;P1;durP2;ratioP2;P2;SDS_P1;SDS_P2;PMS_P1;PMS_P2;Temp;Humidity;BMP_temperature;BMP_pressure;BME280_temperature;BME280_humidity;BME280_pressure;Samples;Min_cycle;Max_cycle;Signal;HPM_P1;HPM_P2
2021/09/10 00:04:50;;;;;;;8.33;7.73;;;20.80;99.90;;;;;;10290757;28;20255;-85
2021/09/10 00:09:52;;;;;;;8.50;7.83;;;20.80;99.90;;;;;;10299439;28;20236;-85
2021/09/10 00:14:54;;;;;;;9.47;8.77;;;20.80;99.90;;;;;;10297824;28;20202;-85
2021/09/10 00:19:58;;;;;;;9.03;7.90;;;20.70;99.90;;;;;;10346832;22;20307;-84
2021/09/10 00:25:00;;;;;;;9.33;8.63;;;20.70;99.90;;;;;;10481664;28;20307;-84
2021/09/10 00:30:02;;;;;;;8.60;7.93;;;20.60;99.90;;;;;;10481969;28;20213;-84
2021/09/10 00:35:06;;;;;;;8.53;7.93;;;20.60;99.90;;;;;;10464533;28;20553;-84
2021/09/10 00:40:09;;;;;;;8.93;8.23;;;20.60;99.90;;;;;;10481696;28;20217;-84
2021/09/10 00:45:12;;;;;;;8.07;7.43;;;20.60;99.90;;;;;;10481228;28;20299;-84
2021/09/10 00:50:15;;;;;;;9.00;8.30;;;20.60;99.90;;;;;;10498928;28;20346;-84
2021/09/10 00:55:25;;;;;;;8.83;8.20;;;20.60;99.90;;;;;;10499360;28;20188;-84
2021/09/10 01:00:27;;;;;;;9.20;8.50;;;20.60;99.90;;;;;;10477145;28;20231;-84
2021/09/10 01:05:30;;;;;;;8.60;7.73;;;20.60;99.90;;;;;;10478186;28;20588;-84
2021/09/10 01:10:33;;;;;;;9.03;8.43;;;20.60;99.90;;;;;;10463474;28;20607;-84
2021/09/10 01:15:35;;;;;;;9.50;8.80;;;20.60;99.90;;;;;;10479784;28;20243;-84
2021/09/10 01:20:39;;;;;;;9.77;8.97;;;20.60;99.90;;;;;;10463568;28;20220;-84
2021/09/10 01:25:42;;;;;;;10.70;9.57;;;20.60;99.90;;;;;;10462932;28;20220;-84
2021/09/10 01:30:45;;;;;;;9.53;8.83;;;20.60;99.90;;;;;;10463145;28;20216;-84
2021/09/10 01:35:49;;;;;;;9.53;8.83;;;20.50;99.90;;;;;;10462317;28;20684;-84
2021/09/10 01:40:52;;;;;;;9.23;8.40;;;20.50;99.90;;;;;;10479015;28;20244;-84
2021/09/10 01:45:55;;;;;;;10.27;9.37;;;20.50;99.90;;;;;;10478143;28;20688;-84
2021/09/10 01:50:57;;;;;;;9.07;8.33;;;20.50;99.90;;;;;;10496843;28;20754;-84
2021/09/10 01:56:00;;;;;;;10.03;9.03;;;20.50;99.90;;;;;;10462296;28;20207;-84
2021/09/10 02:01:02;;;;;;;9.80;8.90;;;20.50;99.90;;;;;;10478680;28;20675;-84
2021/09/10 02:06:04;;;;;;;8.97;8.37;;;20.50;99.90;;;;;;10461726;28;20235;-84
2021/09/10 02:11:08;;;;;;;9.80;8.90;;;20.40;99.90;;;;;;10496157;28;20220;-84
2021/09/10 02:16:11;;;;;;;9.67;8.93;;;20.40;99.90;;;;;;10461455;28;20557;-84
2021/09/10 02:21:14;;;;;;;10.40;8.70;;;20.40;99.90;;;;;;10477745;28;20228;-84
2021/09/10 02:26:17;;;;;;;10.40;9.60;;;20.40;99.90;;;;;;10477561;28;20480;-84
2021/09/10 02:31:19;;;;;;;10.50;9.60;;;20.30;99.90;;;;;;10461219;28;20217;-83
2021/09/10 02:36:22;;;;;;;10.17;9.37;;;20.30;99.90;;;;;;10478923;28;20667;-83
2021/09/10 02:41:25;;;;;;;10.33;9.60;;;20.30;99.90;;;;;;10478301;28;20244;-83
2021/09/10 02:46:27;;;;;;;9.97;9.23;;;20.30;99.90;;;;;;10477470;28;20311;-83
2021/09/10 02:51:29;;;;;;;9.53;8.73;;;20.30;99.90;;;;;;10478478;28;20273;-83
2021/09/10 02:56:34;;;;;;;13.93;10.60;;;20.30;99.90;;;;;;10496472;28;20211;-83
2021/09/10 03:01:37;;;;;;;9.93;9.23;;;20.30;99.90;;;;;;10476466;28;20663;-83
2021/09/10 03:06:41;;;;;;;10.30;9.40;;;20.30;99.90;;;;;;10477001;28;20683;-83
2021/09/10 03:11:44;;;;;;;9.40;8.43;;;20.30;99.90;;;;;;10460649;28;20252;-83
2021/09/10 03:16:46;;;;;;;10.33;9.43;;;20.40;99.90;;;;;;10477940;28;20188;-83
2021/09/10 03:21:48;;;;;;;9.03;8.40;;;20.40;99.90;;;;;;10476548;28;20248;-83
2021/09/10 03:26:52;;;;;;;9.43;8.73;;;20.40;99.90;;;;;;10464852;28;20594;-83
2021/09/10 03:31:54;;;;;;;9.83;9.03;;;20.40;99.90;;;;;;10482999;28;20240;-83
2021/09/10 03:36:56;;;;;;;10.50;9.70;;;20.40;99.90;;;;;;10501923;28;20184;-83
2021/09/10 03:41:59;;;;;;;10.20;9.40;;;20.40;99.90;;;;;;10509925;28;20563;-83
2021/09/10 03:47:04;;;;;;;11.00;9.97;;;20.40;99.90;;;;;;10475282;28;20232;-83
2021/09/10 03:52:07;;;;;;;10.63;9.60;;;20.40;99.90;;;;;;10494340;28;20223;-83
2021/09/10 03:57:10;;;;;;;9.73;9.03;;;20.40;99.90;;;;;;10487221;28;20193;-83
2021/09/10 04:02:13;;;;;;;10.10;9.40;;;20.40;99.90;;;;;;10466996;28;20225;-83
2021/09/10 04:07:15;;;;;;;9.67;8.97;;;20.40;99.90;;;;;;10470090;28;20719;-83
2021/09/10 04:12:19;;;;;;;10.00;9.20;;;20.40;99.90;;;;;;10497758;28;20288;-83
2021/09/10 04:17:21;;;;;;;9.90;9.10;;;20.30;99.90;;;;;;10471566;28;20572;-83
2021/09/10 04:22:23;;;;;;;8.90;8.20;;;20.30;99.90;;;;;;10470912;28;20455;-83
2021/09/10 04:27:27;;;;;;;10.67;9.37;;;20.30;99.90;;;;;;10487652;28;20238;-83
2021/09/10 04:32:29;;;;;;;9.53;8.83;;;20.20;99.90;;;;;;10488454;28;20308;-83
2021/09/10 04:37:31;;;;;;;10.83;9.90;;;20.20;99.90;;;;;;10465512;28;20558;-83
2021/09/10 04:42:35;;;;;;;10.30;9.40;;;20.10;99.90;;;;;;10468346;28;20315;-83
2021/09/10 04:47:37;;;;;;;11.50;10.30;;;20.10;99.90;;;;;;10484743;28;20225;-83
2021/09/10 04:52:39;;;;;;;10.53;9.63;;;20.00;99.90;;;;;;10483879;28;20239;-84
2021/09/10 04:57:42;;;;;;;10.03;9.30;;;20.00;99.90;;;;;;10464723;28;20231;-84
2021/09/10 05:02:45;;;;;;;10.33;9.43;;;19.90;99.90;;;;;;10479920;28;20217;-84
2021/09/10 05:07:47;;;;;;;9.83;9.03;;;19.90;99.90;;;;;;10463531;28;20692;-84
2021/09/10 05:12:50;;;;;;;11.70;10.50;;;19.90;99.90;;;;;;10479947;28;20291;-84
2021/09/10 05:17:52;;;;;;;9.43;8.73;;;19.90;99.90;;;;;;10498168;28;20231;-84
2021/09/10 05:22:54;;;;;;;10.37;9.50;;;19.90;99.90;;;;;;10479384;28;20714;-84
2021/09/10 05:27:58;;;;;;;10.67;9.87;;;19.80;99.90;;;;;;10479756;28;20193;-85
2021/09/10 05:33:00;;;;;;;11.10;10.20;;;19.80;99.90;;;;;;10462976;28;20231;-84
2021/09/10 05:38:02;;;;;;;11.60;10.50;;;19.80;99.90;;;;;;10497902;28;20197;-84
2021/09/10 05:43:05;;;;;;;11.17;10.27;;;19.90;99.90;;;;;;10479503;28;20238;-84
2021/09/10 05:48:08;;;;;;;11.13;10.23;;;19.90;99.90;;;;;;10462368;28;20201;-84
2021/09/10 05:53:10;;;;;;;11.30;10.40;;;19.90;99.90;;;;;;10497503;28;20215;-85
2021/09/10 05:58:16;;;;;;;10.90;10.10;;;19.90;99.90;;;;;;10479302;28;20287;-85
2021/09/10 06:03:18;;;;;;;10.93;10.13;;;19.90;99.90;;;;;;10462420;28;20648;-85
2021/09/10 06:08:21;;;;;;;10.70;9.80;;;19.80;99.90;;;;;;10462055;28;20205;-85
2021/09/10 06:13:24;;;;;;;11.93;10.83;;;19.90;99.90;;;;;;10462257;28;20227;-84
2021/09/10 06:18:26;;;;;;;11.30;10.40;;;19.90;99.90;;;;;;10478811;28;20231;-84
2021/09/10 06:23:28;;;;;;;11.10;10.30;;;19.90;99.90;;;;;;10359883;23;20273;-82
2021/09/10 06:28:32;;;;;;;12.20;11.23;;;20.00;99.90;;;;;;10312770;28;20214;-82
2021/09/10 06:33:34;;;;;;;11.60;10.60;;;20.00;99.90;;;;;;10328273;28;20219;-82
2021/09/10 06:38:36;;;;;;;11.87;10.97;;;20.00;99.90;;;;;;10345783;28;20217;-82
2021/09/10 06:43:39;;;;;;;12.57;11.50;;;20.00;99.90;;;;;;10313925;28;20235;-82
2021/09/10 06:48:41;;;;;;;12.03;10.93;;;20.10;99.90;;;;;;10330577;28;20196;-82
2021/09/10 06:53:43;;;;;;;11.27;10.37;;;20.10;99.90;;;;;;10346465;28;20221;-82
2021/09/10 06:58:47;;;;;;;11.90;10.97;;;20.10;99.90;;;;;;10335427;28;20205;-82
2021/09/10 07:03:49;;;;;;;13.30;12.17;;;20.30;99.90;;;;;;10344995;28;20219;-82
2021/09/10 07:08:51;;;;;;;10.47;9.77;;;20.50;99.90;;;;;;10328888;28;20213;-82
2021/09/10 07:13:55;;;;;;;11.43;10.43;;;20.70;99.90;;;;;;10334624;28;20675;-82
2021/09/10 07:18:57;;;;;;;11.40;10.50;;;20.90;99.90;;;;;;10343939;28;20321;-82
2021/09/10 07:23:59;;;;;;;12.40;11.20;;;21.00;99.90;;;;;;10355386;28;20226;-82
2021/09/10 07:29:02;;;;;;;10.10;9.30;;;21.00;99.90;;;;;;10343297;28;20270;-82
2021/09/10 07:34:05;;;;;;;10.93;10.10;;;21.00;99.90;;;;;;10340091;28;20222;-82
2021/09/10 07:39:10;;;;;;;10.77;9.73;;;21.10;99.90;;;;;;10325697;28;20199;-82
2021/09/10 07:44:16;;;;;;;10.50;9.70;;;21.20;99.90;;;;;;10338124;28;20215;-82
2021/09/10 07:49:19;;;;;;;10.50;9.70;;;21.40;99.90;;;;;;10338618;28;20309;-82
2021/09/10 07:54:21;;;;;;;10.70;9.80;;;21.60;99.90;;;;;;10340432;28;20294;-82
2021/09/10 07:59:25;;;;;;;8.90;8.20;;;21.80;99.90;;;;;;10323066;28;20286;-82
2021/09/10 08:04:27;;;;;;;9.33;8.57;;;22.00;99.90;;;;;;10339971;28;20215;-82
2021/09/10 08:09:29;;;;;;;9.27;8.60;;;22.20;99.90;;;;;;10340233;28;20203;-82
2021/09/10 08:14:32;;;;;;;8.60;7.90;;;22.50;99.90;;;;;;10342740;28;20223;-82
2021/09/10 08:19:35;;;;;;;8.17;7.57;;;22.80;99.90;;;;;;10341632;28;20627;-82
2021/09/10 08:24:37;;;;;;;8.70;7.80;;;23.00;99.90;;;;;;10322727;28;20254;-82
2021/09/10 08:29:40;;;;;;;9.03;8.33;;;23.20;99.90;;;;;;10334735;28;20296;-82
2021/09/10 08:34:43;;;;;;;8.37;7.70;;;23.50;99.90;;;;;;10334283;28;20195;-82
2021/09/10 08:39:45;;;;;;;8.20;7.53;;;23.70;99.90;;;;;;10334472;28;20200;-82
2021/09/10 08:44:52;;;;;;;10.70;7.93;;;23.90;99.90;;;;;;10330585;28;20229;-82
2021/09/10 08:49:54;;;;;;;8.83;6.67;;;24.00;98.60;;;;;;10336206;28;20267;-82
2021/09/10 08:54:59;;;;;;;7.50;6.80;;;24.10;99.90;;;;;;10334796;28;20223;-83
2021/09/10 09:00:05;;;;;;;7.80;7.20;;;24.20;99.90;;;;;;10334609;28;20280;-82
2021/09/10 09:05:08;;;;;;;8.10;7.50;;;24.20;99.90;;;;;;10337094;28;20304;-82
2021/09/10 09:10:12;;;;;;;8.03;7.40;;;24.10;99.90;;;;;;10323691;28;20322;-82
2021/09/10 09:15:16;;;;;;;8.13;7.50;;;24.00;99.70;;;;;;10328877;28;20273;-82
2021/09/10 09:20:20;;;;;;;8.70;7.90;;;23.80;99.90;;;;;;10329516;28;20317;-82
2021/09/10 09:25:24;;;;;;;8.03;7.43;;;23.60;98.40;;;;;;10330029;28;20219;-82
2021/09/10 09:30:42;;;;;;;7.80;7.20;;;23.50;99.80;;;;;;10312357;28;20227;-82
2021/09/10 09:35:44;;;;;;;9.17;8.47;;;23.40;99.90;;;;;;10331317;28;20203;-82
2021/09/10 09:40:47;;;;;;;8.50;7.80;;;23.50;99.80;;;;;;10314136;28;20227;-82
2021/09/10 09:45:53;;;;;;;8.87;8.27;;;23.70;99.50;;;;;;10330723;28;20709;-83
2021/09/10 09:50:57;;;;;;;8.47;7.87;;;23.80;99.10;;;;;;10316131;28;20276;-83
2021/09/10 09:56:01;;;;;;;9.63;7.37;;;24.00;98.50;;;;;;10331760;28;20279;-82
2021/09/10 10:01:06;;;;;;;9.10;8.37;;;24.10;98.50;;;;;;10332292;28;20655;-82
2021/09/10 10:06:14;;;;;;;7.67;7.07;;;24.10;99.50;;;;;;10314349;28;20338;-82
2021/09/10 10:11:19;;;;;;;8.63;7.83;;;24.20;99.80;;;;;;10316331;28;20636;-83
2021/09/10 10:16:44;;;;;;;8.60;7.97;;;24.30;99.80;;;;;;10332125;28;20191;-83
2021/09/10 10:21:54;;;;;;;8.93;8.23;;;24.20;98.70;;;;;;10335483;28;20237;-82
2021/09/10 10:27:34;;;;;;;8.83;8.20;;;24.30;99.60;;;;;;10331249;28;20223;-82
2021/09/10 10:32:39;;;;;;;7.40;6.80;;;24.30;98.60;;;;;;10331918;28;20227;-82
2021/09/10 10:37:44;;;;;;;9.47;7.70;;;24.20;99.90;;;;;;10348711;28;20367;-82
2021/09/10 10:42:51;;;;;;;9.30;8.40;;;24.20;99.40;;;;;;10417701;28;20718;-83
2021/09/10 10:47:54;;;;;;;9.43;8.73;;;24.20;99.70;;;;;;10322888;28;20326;-82
2021/09/10 10:52:57;;;;;;;8.03;7.37;;;24.10;99.90;;;;;;10346864;28;20275;-83
2021/09/10 10:58:23;;;;;;;8.70;8.00;;;24.00;99.90;;;;;;10331436;28;20191;-82
2021/09/10 11:03:38;;;;;;;8.07;7.50;;;24.00;99.70;;;;;;10329363;28;20219;-82
2021/09/10 11:08:42;;;;;;;8.13;7.50;;;23.90;99.80;;;;;;10326465;28;20710;-82
2021/09/10 11:13:45;;;;;;;8.40;7.80;;;23.90;99.70;;;;;;10323854;28;20238;-82
2021/09/10 11:18:49;;;;;;;9.17;8.27;;;23.90;99.00;;;;;;10324176;28;20282;-82
2021/09/10 11:23:51;;;;;;;7.13;6.63;;;23.90;98.50;;;;;;10325975;28;20241;-82
2021/09/10 11:28:55;;;;;;;8.00;7.40;;;23.90;99.20;;;;;;10327751;28;20234;-82
2021/09/10 11:33:58;;;;;;;8.57;7.87;;;23.90;96.50;;;;;;10327643;28;20285;-82
2021/09/10 11:39:02;;;;;;;13.83;8.10;;;23.90;98.50;;;;;;10328796;28;20290;-82
2021/09/10 11:44:09;;;;;;;7.80;7.00;;;23.90;98.40;;;;;;10328507;28;20758;-82
2021/09/10 11:49:16;;;;;;;7.70;7.20;;;23.90;98.90;;;;;;10326886;28;20224;-82
2021/09/10 11:54:20;;;;;;;7.80;7.10;;;23.80;99.20;;;;;;10329177;28;20277;-82
2021/09/10 11:59:25;;;;;;;8.73;7.97;;;23.90;99.40;;;;;;10328365;28;20206;-82
2021/09/10 12:04:32;;;;;;;9.90;9.10;;;24.00;98.10;;;;;;10337326;28;20733;-82
2021/09/10 12:09:39;;;;;;;9.57;8.67;;;24.00;99.70;;;;;;10334510;28;20207;-82
2021/09/10 12:14:46;;;;;;;9.07;8.37;;;24.00;99.40;;;;;;10336218;28;20183;-82
2021/09/10 12:19:57;;;;;;;9.00;8.33;;;24.00;99.90;;;;;;10336265;28;20269;-83
2021/09/10 12:25:28;;;;;;;10.07;9.07;;;24.00;99.90;;;;;;10402285;22;20725;-86
2021/09/10 12:30:36;;;;;;;9.13;7.57;;;24.10;99.90;;;;;;10488273;28;20204;-84
2021/09/10 12:35:42;;;;;;;8.40;7.87;;;24.20;99.10;;;;;;10471353;28;20644;-86
2021/09/10 12:40:47;;;;;;;8.60;8.00;;;24.30;99.70;;;;;;10488529;28;20251;-85
2021/09/10 12:45:50;;;;;;;9.10;8.30;;;24.20;99.90;;;;;;10504545;28;20213;-85
2021/09/10 12:50:54;;;;;;;8.47;7.87;;;24.20;98.70;;;;;;10487715;28;20723;-85
2021/09/10 12:55:56;;;;;;;8.30;7.70;;;24.20;98.70;;;;;;10486455;28;20193;-85
2021/09/10 13:01:03;;;;;;;9.63;8.60;;;24.30;99.90;;;;;;10489354;28;20315;-86
2021/09/10 13:06:07;;;;;;;8.07;7.40;;;24.30;99.90;;;;;;10488117;28;20224;-85
2021/09/10 13:11:11;;;;;;;8.50;7.80;;;24.40;98.70;;;;;;10501942;28;20213;-86
2021/09/10 13:16:14;;;;;;;8.90;8.00;;;24.60;99.90;;;;;;10502164;28;20270;-85
2021/09/10 13:21:18;;;;;;;8.30;7.63;;;24.60;98.30;;;;;;10484620;28;20217;-85
2021/09/10 13:26:22;;;;;;;8.60;8.00;;;24.50;99.80;;;;;;10501089;28;20212;-86
2021/09/10 13:31:25;;;;;;;9.10;8.40;;;24.50;98.60;;;;;;10466475;28;20646;-85
2021/09/10 13:36:30;;;;;;;8.37;7.77;;;24.70;99.30;;;;;;10482614;28;20199;-85
2021/09/10 13:41:34;;;;;;;8.53;7.73;;;24.80;99.90;;;;;;10465720;28;20228;-86
2021/09/10 13:46:37;;;;;;;8.10;7.50;;;24.60;99.90;;;;;;10482028;28;20216;-86
2021/09/10 13:51:42;;;;;;;7.20;6.70;;;24.40;99.90;;;;;;10465861;28;20275;-86
2021/09/10 13:56:45;;;;;;;7.53;6.93;;;24.30;99.90;;;;;;10499870;28;20979;-86
2021/09/10 14:01:49;;;;;;;8.30;7.70;;;24.30;99.90;;;;;;10481614;28;20232;-85
2021/09/10 14:06:54;;;;;;;8.97;7.33;;;24.30;99.90;;;;;;10459025;28;20217;-85
2021/09/10 14:11:56;;;;;;;8.23;7.53;;;24.50;99.90;;;;;;10453653;28;20220;-85
2021/09/10 14:17:00;;;;;;;8.70;7.90;;;24.60;99.90;;;;;;10474187;28;20624;-85
2021/09/10 14:22:10;;;;;;;8.30;7.60;;;24.70;99.90;;;;;;10468526;28;20228;-85
2021/09/10 14:27:15;;;;;;;8.40;7.80;;;24.70;99.90;;;;;;10464669;28;20244;-85
2021/09/10 14:32:17;;;;;;;7.90;7.23;;;24.80;99.90;;;;;;10444156;28;20255;-85
2021/09/10 14:37:20;;;;;;;8.57;7.87;;;24.80;99.80;;;;;;10444390;28;20212;-85
2021/09/10 14:42:23;;;;;;;8.23;7.47;;;24.80;99.90;;;;;;10459674;28;20217;-85
2021/09/10 14:47:25;;;;;;;7.70;7.10;;;24.80;99.50;;;;;;10461419;28;20689;-86
2021/09/10 14:52:28;;;;;;;7.30;6.80;;;24.80;99.80;;;;;;10461567;28;20231;-85
2021/09/10 14:57:30;;;;;;;8.50;7.83;;;24.70;99.70;;;;;;10446989;28;20189;-86
2021/09/10 15:02:33;;;;;;;8.93;8.23;;;24.70;99.90;;;;;;10485330;28;20275;-86
2021/09/10 15:07:37;;;;;;;8.73;7.93;;;24.50;99.90;;;;;;10502532;28;20220;-86
2021/09/10 15:12:39;;;;;;;7.90;7.33;;;24.40;99.90;;;;;;10468417;28;20227;-85
2021/09/10 15:17:42;;;;;;;8.63;8.03;;;24.20;99.90;;;;;;10506465;28;20193;-86
2021/09/10 15:22:45;;;;;;;8.87;8.13;;;24.20;99.90;;;;;;10471991;28;20875;-85
2021/09/10 15:27:47;;;;;;;9.13;8.33;;;24.10;99.90;;;;;;10484987;28;20255;-86
2021/09/10 15:32:49;;;;;;;8.50;7.80;;;24.10;99.90;;;;;;10503324;28;20255;-86
2021/09/10 15:37:53;;;;;;;8.03;7.30;;;24.10;99.90;;;;;;10510976;28;20228;-85
2021/09/10 15:42:55;;;;;;;8.80;8.20;;;24.00;99.90;;;;;;10489472;28;20306;-85
2021/09/10 15:47:57;;;;;;;9.30;8.50;;;23.90;99.90;;;;;;10471173;28;20573;-85
2021/09/10 15:53:01;;;;;;;8.27;7.57;;;23.90;99.90;;;;;;10484607;28;20258;-86
2021/09/10 15:58:05;;;;;;;8.30;7.80;;;23.80;99.90;;;;;;10471632;28;20204;-85
2021/09/10 16:03:08;;;;;;;9.30;8.60;;;23.70;99.90;;;;;;10487822;28;20320;-85
2021/09/10 16:08:11;;;;;;;9.00;8.20;;;23.70;99.90;;;;;;10485861;28;20766;-84
2021/09/10 16:13:13;;;;;;;8.80;8.20;;;23.60;99.90;;;;;;10512353;28;20224;-83
2021/09/10 16:18:15;;;;;;;8.67;8.10;;;23.50;99.90;;;;;;10525316;28;20204;-85
2021/09/10 16:23:19;;;;;;;8.87;8.17;;;23.50;99.90;;;;;;10493737;28;20664;-85
2021/09/10 16:28:21;;;;;;;7.27;6.77;;;23.50;99.90;;;;;;10512549;28;20235;-84
2021/09/10 16:33:24;;;;;;;8.03;7.53;;;23.50;99.90;;;;;;10492221;28;20672;-84
2021/09/10 16:38:27;;;;;;;7.37;6.83;;;23.50;99.90;;;;;;10496262;28;20208;-84
2021/09/10 16:43:29;;;;;;;8.10;7.40;;;23.50;99.90;;;;;;10528790;28;20220;-85
2021/09/10 16:48:31;;;;;;;7.07;6.57;;;23.50;99.90;;;;;;10505903;28;20240;-83
2021/09/10 16:53:35;;;;;;;8.77;8.00;;;23.50;99.90;;;;;;10510953;28;20236;-85
2021/09/10 16:58:37;;;;;;;9.60;8.80;;;23.40;99.90;;;;;;10510559;28;20211;-85
2021/09/10 17:03:39;;;;;;;8.57;7.77;;;23.40;99.90;;;;;;10513382;28;20236;-85
2021/09/10 17:08:43;;;;;;;7.90;7.23;;;23.30;99.90;;;;;;10498095;28;20245;-84
2021/09/10 17:13:45;;;;;;;8.67;7.90;;;23.30;99.90;;;;;;10507630;28;20243;-84
2021/09/10 17:18:47;;;;;;;7.97;7.37;;;23.20;99.90;;;;;;10516237;28;20219;-85
2021/09/10 17:23:50;;;;;;;9.27;8.47;;;23.10;99.90;;;;;;10517518;28;20788;-84
2021/09/10 17:28:53;;;;;;;7.80;7.20;;;23.00;99.90;;;;;;10538731;28;20224;-84
2021/09/10 17:33:55;;;;;;;7.80;7.30;;;23.00;99.90;;;;;;10518484;28;20224;-84
2021/09/10 17:38:58;;;;;;;8.33;7.80;;;22.90;99.90;;;;;;10519446;28;20224;-84
2021/09/10 17:44:01;;;;;;;7.50;6.80;;;22.80;99.90;;;;;;10521727;28;20278;-84
2021/09/10 17:49:03;;;;;;;9.33;8.33;;;22.70;99.90;;;;;;10498753;28;20225;-85
2021/09/10 17:54:08;;;;;;;9.53;8.27;;;22.70;99.90;;;;;;10501905;28;20292;-84
2021/09/10 17:59:10;;;;;;;9.00;8.30;;;22.60;99.90;;;;;;10519148;28;20204;-85
2021/09/10 18:04:12;;;;;;;8.37;7.70;;;22.60;99.90;;;;;;10499933;28;20274;-85
2021/09/10 18:09:15;;;;;;;8.00;7.50;;;22.50;99.90;;;;;;10533817;28;20220;-84
2021/09/10 18:14:17;;;;;;;9.00;8.40;;;22.50;99.90;;;;;;10497559;28;20228;-84
2021/09/10 18:19:20;;;;;;;8.97;8.27;;;22.40;99.90;;;;;;10524992;28;20192;-85
2021/09/10 18:24:23;;;;;;;8.87;8.27;;;22.40;99.90;;;;;;10487397;28;20212;-85
2021/09/10 18:29:25;;;;;;;8.63;8.03;;;22.30;99.90;;;;;;10466046;28;20807;-85
2021/09/10 18:34:29;;;;;;;8.87;8.07;;;22.30;99.90;;;;;;10463974;28;20704;-85
2021/09/10 18:39:33;;;;;;;9.03;8.33;;;22.20;99.90;;;;;;10479903;28;20625;-86
2021/09/10 18:44:35;;;;;;;8.00;7.50;;;22.20;99.90;;;;;;10465897;28;20223;-85
2021/09/10 18:49:37;;;;;;;9.97;9.27;;;22.10;99.90;;;;;;10498882;28;20739;-85
2021/09/10 18:54:41;;;;;;;7.73;7.13;;;22.10;99.90;;;;;;10484905;28;20220;-85
2021/09/10 18:59:43;;;;;;;10.20;9.50;;;22.00;99.90;;;;;;10484483;28;20283;-85
2021/09/10 19:04:45;;;;;;;10.57;9.77;;;22.00;99.90;;;;;;10466729;28;20235;-85
2021/09/10 19:09:50;;;;;;;9.40;8.60;;;22.00;99.90;;;;;;10484194;28;20215;-83
2021/09/10 19:14:53;;;;;;;10.40;9.30;;;21.90;99.90;;;;;;10482100;28;20742;-84
2021/09/10 19:19:55;;;;;;;10.30;9.60;;;21.90;99.90;;;;;;10503730;28;20185;-84
2021/09/10 19:24:59;;;;;;;10.90;9.90;;;21.80;99.90;;;;;;10490501;28;20609;-84
2021/09/10 19:30:02;;;;;;;9.27;8.57;;;21.80;99.90;;;;;;10522848;28;20288;-84
2021/09/10 19:35:04;;;;;;;9.60;8.90;;;21.80;99.90;;;;;;10521922;28;20208;-85
2021/09/10 19:40:11;;;;;;;9.43;8.70;;;21.70;99.90;;;;;;10507039;28;20687;-84
2021/09/10 19:45:13;;;;;;;10.37;9.67;;;21.70;99.90;;;;;;10492874;28;20223;-83
2021/09/10 19:50:16;;;;;;;9.50;8.80;;;21.60;99.90;;;;;;10492948;28;20651;-84
2021/09/10 19:55:19;;;;;;;12.03;11.10;;;21.60;99.90;;;;;;10484677;28;20196;-84
2021/09/10 20:00:24;;;;;;;10.67;9.87;;;21.60;99.90;;;;;;10483096;28;20193;-84
2021/09/10 20:05:27;;;;;;;9.63;8.83;;;21.60;99.90;;;;;;10499823;28;20212;-85
2021/09/10 20:10:30;;;;;;;9.87;9.17;;;21.60;99.90;;;;;;10484467;28;20224;-85
2021/09/10 20:15:32;;;;;;;11.73;10.77;;;21.60;99.90;;;;;;10481169;28;20223;-85
2021/09/10 20:20:34;;;;;;;10.77;9.97;;;21.60;99.90;;;;;;10466801;28;20287;-85
2021/09/10 20:25:38;;;;;;;10.87;10.07;;;21.60;99.90;;;;;;10486643;28;20205;-84
2021/09/10 20:30:40;;;;;;;13.13;9.63;;;21.60;99.90;;;;;;10469550;28;20228;-85
2021/09/10 20:35:42;;;;;;;9.53;8.77;;;21.60;99.90;;;;;;10472343;28;20211;-84
2021/09/10 20:40:46;;;;;;;10.00;9.30;;;21.60;99.90;;;;;;10485727;28;20311;-84
2021/09/10 20:45:49;;;;;;;9.90;9.00;;;21.60;99.90;;;;;;10499998;28;20235;-85
2021/09/10 20:50:52;;;;;;;9.70;8.97;;;21.60;99.90;;;;;;10468624;28;20474;-84
2021/09/10 20:55:55;;;;;;;10.40;9.60;;;21.60;99.90;;;;;;10485480;28;20210;-84
2021/09/10 21:00:57;;;;;;;12.10;9.20;;;21.60;99.90;;;;;;10484827;28;20212;-84
2021/09/10 21:05:59;;;;;;;9.00;8.27;;;21.60;99.90;;;;;;10502665;28;20209;-84
2021/09/10 21:11:03;;;;;;;10.07;9.27;;;21.60;99.90;;;;;;10471990;28;20243;-83
2021/09/10 21:16:05;;;;;;;8.50;7.90;;;21.50;99.90;;;;;;10480216;28;20208;-84
2021/09/10 21:21:08;;;;;;;9.93;9.13;;;21.50;99.90;;;;;;10425455;28;20255;-83
2021/09/10 21:26:12;;;;;;;10.20;9.37;;;21.50;99.90;;;;;;10439927;28;20213;-83
2021/09/10 21:31:14;;;;;;;10.97;10.07;;;21.60;99.90;;;;;;10469493;28;20861;-83
2021/09/10 21:36:16;;;;;;;9.83;9.03;;;21.50;99.90;;;;;;10485834;28;20211;-83
2021/09/10 21:41:19;;;;;;;10.20;9.40;;;21.60;99.90;;;;;;10469709;28;20216;-83
2021/09/10 21:46:22;;;;;;;9.93;9.23;;;21.60;99.90;;;;;;10484423;28;20250;-83
2021/09/10 21:51:24;;;;;;;10.73;9.67;;;21.60;99.90;;;;;;10509469;28;20219;-84
2021/09/10 21:56:27;;;;;;;11.20;10.40;;;21.70;99.90;;;;;;10473273;28;20211;-83
2021/09/10 22:01:30;;;;;;;11.13;10.13;;;21.70;99.90;;;;;;10471225;28;20251;-84
2021/09/10 22:06:33;;;;;;;10.33;9.53;;;21.70;99.90;;;;;;10470826;28;20219;-83
2021/09/10 22:11:37;;;;;;;10.57;9.77;;;21.70;99.90;;;;;;10479167;28;20247;-83
2021/09/10 22:16:39;;;;;;;10.17;9.37;;;21.70;99.90;;;;;;10495702;28;20196;-85
2021/09/10 22:21:41;;;;;;;10.23;9.53;;;21.70;99.90;;;;;;10481220;28;20786;-84
2021/09/10 22:26:45;;;;;;;9.80;9.10;;;21.70;99.90;;;;;;10482914;28;20280;-85
2021/09/10 22:31:47;;;;;;;10.00;9.30;;;21.70;99.90;;;;;;10500145;28;20220;-84
2021/09/10 22:36:49;;;;;;;10.00;9.30;;;21.70;99.90;;;;;;10519891;28;20196;-84
2021/09/10 22:41:52;;;;;;;10.17;9.30;;;21.70;99.90;;;;;;10503093;28;20235;-84
2021/09/10 22:46:54;;;;;;;9.57;8.87;;;21.60;99.90;;;;;;10502597;28;20243;-84
2021/09/10 22:51:57;;;;;;;9.50;8.80;;;21.60;99.90;;;;;;10490254;28;20220;-85
2021/09/10 22:57:00;;;;;;;9.70;8.80;;;21.60;99.90;;;;;;10527804;28;20223;-84
2021/09/10 23:02:02;;;;;;;9.50;8.70;;;21.60;99.90;;;;;;10497389;28;20255;-83
2021/09/10 23:07:05;;;;;;;9.17;8.47;;;21.60;99.90;;;;;;10471176;28;20560;-84
2021/09/10 23:12:09;;;;;;;8.70;8.10;;;21.60;99.90;;;;;;10474562;28;20240;-84
2021/09/10 23:17:11;;;;;;;7.70;7.10;;;21.60;99.90;;;;;;10450801;28;20251;-84
2021/09/10 23:22:13;;;;;;;8.60;7.90;;;21.60;99.90;;;;;;10484571;28;20602;-83
2021/09/10 23:27:17;;;;;;;8.20;7.40;;;21.60;99.90;;;;;;10464014;28;20251;-83
2021/09/10 23:32:19;;;;;;;7.70;7.10;;;21.60;99.90;;;;;;10490969;28;20235;-83
2021/09/10 23:37:21;;;;;;;7.80;7.20;;;21.60;99.90;;;;;;10471423;28;20200;-84
2021/09/10 23:42:25;;;;;;;8.00;7.40;;;21.60;99.90;;;;;;10457962;28;20227;-83
2021/09/10 23:47:27;;;;;;;7.97;7.37;;;21.60;99.90;;;;;;10472614;28;20692;-83
2021/09/10 23:52:29;;;;;;;8.30;7.70;;;21.60;99.90;;;;;;10453799;28;20239;-83
2021/09/10 23:57:32;;;;;;;8.67;8.07;;;21.60;99.90;;;;;;10507808;28;20203;-84
